createdAt,value
2023-10-04T00:00:01.921Z,65.20
2023-10-04T00:02:28.482Z,65.10
2023-10-04T00:05:00.713Z,65.00
2023-10-04T00:07:27.282Z,65.20
2023-10-04T00:09:53.789Z,64.90
2023-10-04T00:12:20.355Z,64.90
2023-10-04T00:14:46.888Z,65.10
2023-10-04T00:17:13.440Z,64.90
2023-10-04T00:19:39.942Z,64.90
2023-10-04T00:22:06.484Z,64.60
2023-10-04T00:24:33.084Z,64.90
2023-10-04T00:26:59.722Z,64.90
2023-10-04T00:29:26.246Z,64.60
2023-10-04T00:31:52.858Z,64.90
2023-10-04T00:34:19.434Z,64.70
2023-10-04T00:36:45.967Z,64.40
2023-10-04T00:39:12.529Z,64.50
2023-10-04T00:41:39.073Z,64.30
2023-10-04T00:44:05.586Z,64.40
2023-10-04T00:46:32.155Z,64.70
2023-10-04T00:48:58.755Z,64.70
2023-10-04T00:51:25.338Z,64.50
2023-10-04T00:53:51.927Z,64.30
2023-10-04T00:56:18.504Z,64.50
2023-10-04T00:58:45.014Z,64.50
2023-10-04T01:01:11.569Z,64.50
2023-10-04T01:03:43.217Z,64.60
2023-10-04T01:06:09.913Z,64.60
2023-10-04T01:08:36.425Z,64.70
2023-10-04T01:11:02.966Z,64.80
2023-10-04T01:13:29.488Z,64.90
2023-10-04T01:15:56.016Z,64.50
2023-10-04T01:18:22.601Z,64.30
2023-10-04T01:20:49.160Z,64.50
2023-10-04T01:23:15.842Z,64.20
2023-10-04T01:25:42.436Z,64.40
2023-10-04T01:28:08.962Z,64.40
2023-10-04T01:30:35.510Z,64.50
2023-10-04T01:33:02.144Z,64.40
2023-10-04T01:35:28.756Z,64.30
2023-10-04T01:37:55.323Z,64.50
2023-10-04T01:40:24.724Z,64.40
2023-10-04T01:42:51.284Z,64.20
2023-10-04T01:45:17.818Z,64.30
2023-10-04T01:47:44.379Z,64.30
2023-10-04T01:50:10.893Z,64.20
2023-10-04T01:52:37.470Z,64.20
2023-10-04T01:55:03.986Z,65.20
2023-10-04T01:57:30.648Z,64.40
2023-10-04T01:59:57.285Z,64.00
2023-10-04T02:02:26.700Z,64.00
2023-10-04T02:04:54.441Z,63.80
2023-10-04T02:07:20.989Z,63.80
2023-10-04T02:09:47.491Z,63.80
2023-10-04T02:12:14.089Z,63.80
2023-10-04T02:14:40.680Z,63.80
2023-10-04T02:17:07.340Z,63.70
2023-10-04T02:19:33.876Z,63.90
2023-10-04T02:22:00.389Z,64.00
2023-10-04T02:24:26.922Z,64.10
2023-10-04T02:26:53.475Z,63.90
2023-10-04T02:29:19.988Z,64.00
2023-10-04T02:31:46.501Z,64.10
2023-10-04T02:34:13.028Z,64.50
2023-10-04T02:36:39.611Z,64.40
2023-10-04T02:39:06.405Z,64.50
2023-10-04T02:41:33.118Z,64.60
2023-10-04T02:43:59.669Z,64.10
2023-10-04T02:46:26.245Z,64.00
2023-10-04T02:48:52.808Z,64.10
2023-10-04T02:51:24.900Z,64.10
2023-10-04T02:53:51.470Z,64.00
2023-10-04T02:56:19.557Z,64.40
2023-10-04T02:58:46.961Z,64.30
2023-10-04T03:01:13.525Z,64.20
2023-10-04T03:03:40.112Z,64.10
2023-10-04T03:06:06.762Z,63.80
2023-10-04T03:08:33.729Z,63.80
2023-10-04T03:11:00.413Z,63.90
2023-10-04T03:13:27.192Z,64.10
2023-10-04T03:15:54.737Z,64.00
2023-10-04T03:18:21.365Z,64.10
2023-10-04T03:20:48.032Z,63.80
2023-10-04T03:23:14.537Z,63.40
2023-10-04T03:25:41.034Z,63.50
2023-10-04T03:28:07.569Z,63.70
2023-10-04T03:30:34.164Z,63.70
2023-10-04T03:33:00.796Z,63.50
2023-10-04T03:35:27.464Z,63.80
2023-10-04T03:37:54.116Z,63.80
2023-10-04T03:40:20.654Z,64.10
2023-10-04T03:42:47.182Z,63.70
2023-10-04T03:45:13.797Z,63.70
2023-10-04T03:47:40.400Z,63.80
2023-10-04T03:50:06.994Z,63.90
2023-10-04T03:52:33.496Z,63.80
2023-10-04T03:55:00.024Z,63.80
2023-10-04T03:57:26.576Z,63.60
2023-10-04T03:59:54.801Z,63.70
2023-10-04T04:02:21.303Z,63.60
2023-10-04T04:04:48.069Z,63.50
2023-10-04T04:07:14.665Z,63.50
2023-10-04T04:09:41.334Z,63.40
2023-10-04T04:12:07.933Z,63.90
2023-10-04T04:14:34.530Z,63.80
2023-10-04T04:17:01.095Z,63.80
2023-10-04T04:19:27.712Z,63.90
2023-10-04T04:21:54.246Z,63.60
2023-10-04T04:24:20.827Z,63.80
2023-10-04T04:26:47.383Z,63.80
2023-10-04T04:29:13.898Z,63.50
2023-10-04T04:31:40.528Z,63.50
2023-10-04T04:34:07.131Z,63.40
2023-10-04T04:36:33.707Z,63.10
2023-10-04T04:39:00.357Z,63.10
2023-10-04T04:41:26.897Z,62.90
2023-10-04T04:43:53.413Z,63.20
2023-10-04T04:46:20.336Z,62.90
2023-10-04T04:48:47.098Z,62.80
2023-10-04T04:51:14.021Z,63.10
2023-10-04T04:53:40.596Z,63.40
2023-10-04T04:56:07.145Z,63.40
2023-10-04T04:58:33.656Z,63.40
2023-10-04T05:01:00.197Z,63.10
2023-10-04T05:03:26.792Z,63.10
2023-10-04T05:05:53.391Z,63.40
2023-10-04T05:08:19.911Z,63.50
2023-10-04T05:10:46.433Z,63.10
2023-10-04T05:13:12.941Z,63.20
2023-10-04T05:15:39.558Z,63.00
2023-10-04T05:18:06.258Z,62.90
2023-10-04T05:20:32.871Z,62.80
2023-10-04T05:22:59.386Z,62.90
2023-10-04T05:25:25.897Z,63.20
2023-10-04T05:27:52.399Z,63.50
2023-10-04T05:30:18.957Z,63.60
2023-10-04T05:32:45.615Z,63.80
2023-10-04T05:35:12.164Z,63.60
2023-10-04T05:37:38.730Z,63.40
2023-10-04T05:40:05.244Z,63.90
2023-10-04T05:42:36.992Z,63.00
2023-10-04T05:45:03.585Z,62.90
2023-10-04T05:47:30.939Z,62.80
2023-10-04T05:49:58.412Z,62.70
2023-10-04T05:52:24.957Z,62.70
2023-10-04T05:54:51.531Z,62.50
2023-10-04T05:57:18.134Z,63.10
2023-10-04T05:59:44.644Z,63.20
2023-10-04T06:02:11.188Z,63.00
2023-10-04T06:04:37.733Z,63.10
2023-10-04T06:07:04.278Z,62.90
2023-10-04T06:09:30.903Z,63.30
2023-10-04T06:11:57.456Z,63.40
2023-10-04T06:14:24.903Z,63.30
2023-10-04T06:16:51.464Z,63.10
2023-10-04T06:19:29.202Z,63.40
2023-10-04T06:21:56.911Z,63.20
2023-10-04T06:24:24.931Z,63.20
2023-10-04T06:26:51.511Z,62.90
2023-10-04T06:29:18.058Z,62.80
2023-10-04T06:31:48.989Z,62.70
2023-10-04T06:34:15.547Z,63.00
2023-10-04T06:36:42.105Z,63.30
2023-10-04T06:39:13.100Z,63.10
2023-10-04T06:41:42.960Z,63.00
2023-10-04T06:44:09.477Z,63.00
2023-10-04T06:46:36.977Z,63.20
2023-10-04T06:49:03.816Z,63.00
2023-10-04T06:51:30.546Z,62.80
2023-10-04T06:54:01.005Z,62.70
2023-10-04T06:56:27.559Z,63.00
2023-10-04T06:58:54.077Z,63.10
2023-10-04T07:01:25.208Z,63.00
2023-10-04T07:03:51.846Z,63.20
2023-10-04T07:06:18.413Z,63.10
2023-10-04T07:08:44.973Z,63.20
2023-10-04T07:11:12.957Z,63.30
2023-10-04T07:13:39.458Z,63.20
2023-10-04T07:16:06.022Z,63.10
2023-10-04T07:18:37.036Z,63.20
2023-10-04T07:21:03.612Z,63.30
2023-10-04T07:23:42.437Z,63.70
2023-10-04T07:26:09.774Z,63.40
2023-10-04T07:28:37.018Z,63.20
2023-10-04T07:31:03.609Z,63.20
2023-10-04T07:33:30.321Z,63.40
2023-10-04T07:35:56.845Z,63.40
2023-10-04T07:38:23.367Z,63.50
2023-10-04T07:40:51.895Z,63.50
2023-10-04T07:43:18.412Z,63.60
2023-10-04T07:45:45.099Z,63.60
2023-10-04T07:48:11.876Z,63.50
2023-10-04T07:50:38.510Z,63.20
2023-10-04T07:53:06.982Z,63.20
2023-10-04T07:55:33.499Z,63.40
2023-10-04T07:58:00.984Z,63.30
2023-10-04T08:00:27.687Z,63.40
2023-10-04T08:02:54.321Z,63.40
2023-10-04T08:05:20.900Z,64.30
2023-10-04T08:07:47.401Z,63.50
2023-10-04T08:10:14.651Z,63.30
2023-10-04T08:12:41.181Z,63.30
2023-10-04T08:15:07.705Z,63.10
2023-10-04T08:17:34.327Z,63.50
2023-10-04T08:20:00.889Z,63.60
2023-10-04T08:22:31.101Z,63.50
2023-10-04T08:24:57.629Z,63.20
2023-10-04T08:27:24.187Z,63.20
2023-10-04T08:29:55.074Z,63.20
2023-10-04T08:32:21.588Z,63.20
2023-10-04T08:34:49.068Z,63.30
2023-10-04T08:37:15.586Z,63.30
2023-10-04T08:39:42.158Z,63.50
2023-10-04T08:42:13.077Z,63.40
2023-10-04T08:47:31.102Z,63.50
2023-10-04T08:49:57.658Z,63.40
2023-10-04T08:52:24.196Z,63.60
2023-10-04T08:54:50.795Z,63.60
2023-10-04T08:57:17.359Z,63.50
2023-10-04T08:59:43.911Z,63.50
2023-10-04T09:02:10.466Z,63.70
2023-10-04T09:04:37.246Z,63.60
2023-10-04T09:07:04.134Z,63.80
2023-10-04T09:09:30.685Z,63.40
2023-10-04T09:12:01.086Z,63.40
2023-10-04T09:14:27.644Z,63.50
2023-10-04T09:16:55.102Z,63.50
2023-10-04T09:19:25.102Z,63.40
2023-10-04T09:21:51.702Z,63.50
2023-10-04T09:24:18.434Z,63.50
2023-10-04T09:26:45.083Z,63.60
2023-10-04T09:29:11.618Z,63.40
2023-10-04T09:31:38.195Z,63.60
2023-10-04T09:34:05.027Z,63.60
2023-10-04T09:36:31.718Z,63.80
2023-10-04T09:38:58.374Z,63.80
2023-10-04T09:41:25.012Z,63.90
2023-10-04T09:43:51.543Z,63.60
2023-10-04T09:46:21.122Z,63.70
2023-10-04T09:48:47.727Z,63.70
2023-10-04T09:51:14.408Z,63.80
2023-10-04T09:53:43.121Z,63.90
2023-10-04T09:56:09.682Z,63.90
2023-10-04T09:58:36.386Z,63.70
2023-10-04T10:01:03.058Z,63.80
2023-10-04T10:03:31.195Z,63.80
2023-10-04T10:05:57.753Z,64.00
2023-10-04T10:08:24.261Z,63.90
2023-10-04T10:10:50.760Z,64.00
2023-10-04T10:13:17.275Z,63.80
2023-10-04T10:15:43.847Z,64.00
2023-10-04T10:18:10.583Z,63.70
2023-10-04T10:20:37.196Z,63.90
2023-10-04T10:23:03.719Z,63.90
2023-10-04T10:25:30.260Z,63.80
2023-10-04T10:27:56.837Z,63.80
2023-10-04T10:30:23.475Z,63.80
2023-10-04T10:32:50.089Z,63.90
2023-10-04T10:35:21.658Z,63.90
2023-10-04T10:37:48.191Z,63.90
2023-10-04T10:40:14.739Z,63.80
2023-10-04T10:42:43.177Z,64.00
2023-10-04T10:45:09.701Z,63.90
2023-10-04T10:47:49.654Z,63.90
2023-10-04T10:50:20.046Z,63.80
2023-10-04T10:52:46.559Z,63.80
2023-10-04T10:55:13.088Z,63.80
2023-10-04T10:57:39.677Z,63.80
2023-10-04T11:00:06.237Z,63.80
2023-10-04T11:02:33.104Z,63.70
2023-10-04T11:04:59.810Z,63.80
2023-10-04T11:07:26.347Z,63.90
2023-10-04T11:09:53.638Z,63.60
2023-10-04T11:12:20.239Z,63.80
2023-10-04T11:14:46.783Z,63.80
2023-10-04T11:17:13.357Z,63.80
2023-10-04T11:19:43.219Z,64.00
2023-10-04T11:22:13.344Z,64.00
2023-10-04T11:24:39.912Z,63.90
2023-10-04T11:27:07.236Z,63.70
2023-10-04T11:29:33.752Z,63.70
2023-10-04T11:32:01.281Z,63.50
2023-10-04T11:34:27.883Z,63.60
2023-10-04T11:36:54.472Z,63.50
2023-10-04T11:39:21.037Z,63.70
2023-10-04T11:41:47.621Z,63.60
2023-10-04T11:44:19.318Z,64.40
2023-10-04T11:46:45.891Z,63.30
2023-10-04T11:49:12.603Z,63.80
2023-10-04T11:51:39.192Z,63.50
2023-10-04T11:54:06.051Z,63.40
2023-10-04T11:56:32.858Z,63.30
2023-10-04T11:58:59.364Z,63.60
2023-10-04T12:01:31.242Z,63.60
2023-10-04T12:03:58.207Z,63.60
2023-10-04T12:06:24.908Z,63.70
2023-10-04T12:08:51.429Z,63.70
2023-10-04T12:11:17.947Z,63.40
2023-10-04T12:13:49.250Z,63.70
2023-10-04T12:16:15.876Z,63.30
2023-10-04T12:18:42.493Z,63.00
2023-10-04T12:21:09.083Z,63.40
2023-10-04T12:23:35.638Z,63.50
2023-10-04T12:26:07.248Z,63.30
2023-10-04T12:28:33.785Z,63.50
2023-10-04T12:31:00.358Z,63.40
2023-10-04T12:33:27.087Z,63.30
2023-10-04T12:35:53.718Z,63.10
2023-10-04T12:38:20.247Z,63.20
2023-10-04T12:40:49.232Z,63.30
2023-10-04T12:43:15.782Z,63.30
2023-10-04T12:45:42.321Z,62.80
2023-10-04T12:48:08.923Z,63.00
2023-10-04T12:50:35.778Z,63.00
2023-10-04T12:53:07.271Z,62.80
2023-10-04T12:55:33.797Z,63.00
2023-10-04T12:58:00.394Z,62.90
2023-10-04T13:00:31.494Z,63.00
2023-10-04T13:02:58.777Z,63.20
2023-10-04T13:05:25.535Z,63.20
2023-10-04T13:07:52.071Z,62.90
2023-10-04T13:10:19.295Z,63.00
2023-10-04T13:12:49.328Z,63.00
2023-10-04T13:15:15.866Z,63.00
2023-10-04T13:17:42.441Z,62.90
2023-10-04T13:20:09.016Z,62.70
2023-10-04T13:22:35.541Z,62.80
2023-10-04T13:25:07.368Z,63.00
2023-10-04T13:30:24.003Z,62.80
2023-10-04T13:32:50.592Z,62.80
2023-10-04T13:35:17.137Z,62.70
2023-10-04T13:37:43.672Z,62.70
2023-10-04T13:40:10.402Z,62.70
2023-10-04T13:42:43.582Z,62.50
2023-10-04T13:45:10.158Z,62.40
2023-10-04T13:47:36.847Z,62.60
2023-10-04T13:50:03.540Z,62.60
2023-10-04T13:52:31.289Z,62.50
2023-10-04T13:54:57.864Z,62.50
2023-10-04T13:57:24.449Z,62.60
2023-10-04T13:59:51.004Z,62.70
2023-10-04T14:02:17.570Z,62.70
2023-10-04T14:04:44.163Z,62.50
2023-10-04T14:07:10.674Z,62.30
2023-10-04T14:09:37.217Z,62.50
2023-10-04T14:12:03.751Z,62.50
2023-10-04T14:14:31.348Z,62.60
2023-10-04T14:17:01.353Z,62.60
2023-10-04T14:19:27.889Z,63.30
2023-10-04T14:21:54.454Z,62.40
2023-10-04T14:24:25.593Z,62.50
2023-10-04T14:26:52.158Z,62.30
2023-10-04T14:29:19.319Z,62.10
2023-10-04T14:31:45.920Z,62.30
2023-10-04T14:34:12.461Z,62.30
2023-10-04T14:36:39.060Z,62.20
2023-10-04T14:39:05.759Z,62.20
2023-10-04T14:41:32.510Z,62.10
2023-10-04T14:43:59.058Z,62.30
2023-10-04T14:46:25.676Z,62.30
2023-10-04T14:48:52.325Z,62.40
2023-10-04T14:51:18.877Z,62.50
2023-10-04T14:53:49.488Z,62.40
2023-10-04T14:56:15.995Z,62.20
2023-10-04T14:58:42.539Z,62.10
2023-10-04T15:01:09.279Z,62.30
2023-10-04T15:03:36.081Z,62.10
2023-10-04T15:06:02.755Z,62.30
2023-10-04T15:08:31.372Z,62.40
2023-10-04T15:10:57.948Z,62.50
2023-10-04T15:13:25.376Z,62.60
2023-10-04T15:16:06.542Z,62.50
2023-10-04T15:18:35.644Z,62.40
2023-10-04T15:21:02.219Z,62.30
2023-10-04T15:23:31.431Z,62.40
2023-10-04T15:25:57.953Z,62.40
2023-10-04T15:28:25.410Z,62.20
2023-10-04T15:30:51.975Z,62.20
2023-10-04T15:33:18.540Z,62.20
2023-10-04T15:35:49.620Z,62.30
2023-10-04T15:38:16.163Z,62.60
2023-10-04T15:40:42.683Z,62.40
2023-10-04T15:43:09.336Z,62.40
2023-10-04T15:45:35.972Z,62.50
2023-10-04T15:48:02.580Z,62.10
2023-10-04T15:50:31.365Z,62.20
2023-10-04T15:53:01.440Z,62.30
2023-10-04T15:55:31.472Z,62.40
2023-10-04T15:57:58.052Z,62.30
2023-10-04T16:00:24.646Z,62.30
2023-10-04T16:02:51.222Z,62.30
2023-10-04T16:05:19.424Z,62.50
2023-10-04T16:07:45.941Z,62.40
2023-10-04T16:10:12.638Z,62.40
2023-10-04T16:12:39.227Z,62.40
2023-10-04T16:15:05.784Z,62.20
2023-10-04T16:17:37.630Z,62.00
2023-10-04T16:20:04.322Z,61.90
2023-10-04T16:22:30.842Z,62.00
2023-10-04T16:24:57.415Z,62.10
2023-10-04T16:27:24.046Z,62.50
2023-10-04T16:29:50.587Z,62.30
2023-10-04T16:32:17.338Z,62.40
2023-10-04T16:34:43.856Z,62.30
2023-10-04T16:37:13.677Z,62.00
2023-10-04T16:39:40.226Z,61.90
2023-10-04T16:42:06.736Z,61.90
2023-10-04T16:44:33.260Z,62.10
2023-10-04T16:47:03.873Z,62.20
2023-10-04T16:49:30.877Z,62.30
2023-10-04T16:51:57.441Z,62.10
2023-10-04T16:54:23.963Z,62.10
2023-10-04T16:56:55.678Z,62.20
2023-10-04T16:59:22.224Z,62.30
2023-10-04T17:01:48.865Z,62.00
2023-10-04T17:04:15.453Z,62.50
2023-10-04T17:06:43.486Z,62.20
2023-10-04T17:09:10.039Z,62.20
2023-10-04T17:11:36.555Z,62.00
2023-10-04T17:14:03.109Z,62.30
2023-10-04T17:16:31.590Z,62.30
2023-10-04T17:18:58.275Z,62.30
2023-10-04T17:21:24.842Z,62.90
2023-10-04T17:23:51.378Z,62.10
2023-10-04T17:26:17.914Z,62.10
2023-10-04T17:28:44.458Z,62.00
2023-10-04T17:31:13.850Z,62.00
2023-10-04T17:33:40.931Z,62.10
2023-10-04T17:36:07.493Z,62.10
2023-10-04T17:38:43.740Z,62.30
2023-10-04T17:41:10.255Z,62.30
2023-10-04T17:43:36.837Z,62.10
2023-10-04T17:46:03.394Z,62.50
2023-10-04T17:48:29.957Z,62.40
2023-10-04T17:51:01.566Z,62.30
2023-10-04T17:53:28.091Z,62.00
2023-10-04T17:55:54.646Z,61.80
2023-10-04T17:58:21.173Z,62.10
2023-10-04T18:00:47.738Z,62.30
2023-10-04T18:03:14.441Z,62.30
2023-10-04T18:05:43.535Z,62.40
2023-10-04T18:08:10.084Z,62.00
2023-10-04T18:10:36.605Z,62.10
2023-10-04T18:13:03.123Z,62.20
2023-10-04T18:15:29.762Z,62.30
2023-10-04T18:17:56.508Z,62.40
2023-10-04T18:20:25.525Z,62.30
2023-10-04T18:22:52.061Z,62.40
2023-10-04T18:25:25.593Z,62.30
2023-10-04T18:27:52.198Z,62.10
2023-10-04T18:30:19.533Z,62.10
2023-10-04T18:32:46.163Z,62.30
2023-10-04T18:35:12.783Z,62.10
2023-10-04T18:37:39.375Z,62.10
2023-10-04T18:40:05.952Z,62.20
2023-10-04T18:42:32.600Z,62.00
2023-10-04T18:44:59.292Z,61.90
2023-10-04T18:47:31.596Z,62.00
2023-10-04T18:50:01.786Z,62.20
2023-10-04T18:52:28.349Z,62.10
2023-10-04T18:54:54.876Z,62.10
2023-10-04T18:57:25.591Z,62.00
2023-10-04T18:59:55.652Z,62.10
2023-10-04T19:02:22.216Z,61.90
2023-10-04T19:05:03.250Z,62.10
2023-10-04T19:07:37.786Z,62.20
2023-10-04T19:10:04.364Z,62.50
2023-10-04T19:12:31.016Z,62.30
2023-10-04T19:14:57.596Z,62.40
2023-10-04T19:17:24.109Z,62.30
2023-10-04T19:22:42.871Z,62.00
2023-10-04T19:25:09.984Z,61.90
2023-10-04T19:27:36.535Z,61.70
2023-10-04T19:30:03.078Z,61.80
2023-10-04T19:32:29.637Z,61.80
2023-10-04T19:34:56.189Z,62.10
2023-10-04T19:37:22.748Z,62.00
2023-10-04T19:39:49.731Z,62.00
2023-10-04T19:42:19.662Z,62.10
2023-10-04T19:44:46.190Z,62.00
2023-10-04T19:47:12.786Z,61.90
2023-10-04T19:49:39.311Z,62.00
2023-10-04T19:52:05.908Z,62.00
2023-10-04T19:54:32.588Z,62.00
2023-10-04T19:57:01.745Z,62.00
2023-10-04T19:59:28.251Z,62.00
2023-10-04T20:01:55.739Z,62.10
2023-10-04T20:04:22.354Z,62.00
2023-10-04T20:06:49.644Z,62.00
2023-10-04T20:09:16.157Z,61.90
2023-10-04T20:11:43.685Z,62.00
2023-10-04T20:14:13.961Z,62.20
2023-10-04T20:16:40.544Z,62.10
2023-10-04T20:19:07.106Z,61.90
2023-10-04T20:21:37.680Z,61.80
2023-10-04T20:24:04.467Z,61.80
2023-10-04T20:26:31.670Z,62.10
2023-10-04T20:28:58.182Z,62.10
2023-10-04T20:31:24.757Z,62.20
2023-10-04T20:33:51.515Z,62.10
2023-10-04T20:36:18.134Z,62.00
2023-10-04T20:38:44.685Z,62.20
2023-10-04T20:41:11.202Z,62.10
2023-10-04T20:43:37.728Z,62.00
2023-10-04T20:46:04.349Z,61.80
2023-10-04T20:48:30.915Z,62.10
2023-10-04T20:51:01.733Z,62.10
2023-10-04T20:53:28.281Z,62.80
2023-10-04T20:55:54.793Z,61.90
2023-10-04T20:58:25.962Z,62.00
2023-10-04T21:00:52.691Z,62.10
2023-10-04T21:03:19.359Z,62.80
2023-10-04T21:05:45.939Z,62.00
2023-10-04T21:08:12.469Z,62.00
2023-10-04T21:10:43.783Z,62.10
2023-10-04T21:13:10.354Z,62.10
2023-10-04T21:15:37.149Z,61.90
2023-10-04T21:18:03.808Z,62.10
2023-10-04T21:20:33.180Z,62.00
2023-10-04T21:22:59.768Z,62.00
2023-10-04T21:25:31.706Z,62.90
2023-10-04T21:27:58.282Z,62.20
2023-10-04T21:30:24.834Z,62.20
2023-10-04T21:32:51.380Z,62.20
2023-10-04T21:35:19.840Z,62.30
2023-10-04T21:37:50.147Z,62.10
2023-10-04T21:40:16.868Z,62.10
2023-10-04T21:42:43.438Z,62.00
2023-10-04T21:45:09.960Z,62.10
2023-10-04T21:47:36.483Z,62.20
2023-10-04T21:50:03.034Z,62.20
2023-10-04T21:52:29.641Z,62.30
2023-10-04T21:54:56.201Z,62.20
2023-10-04T21:57:22.777Z,62.20
2023-10-04T21:59:49.342Z,62.10
2023-10-04T22:02:19.804Z,62.10
2023-10-04T22:04:46.381Z,62.20
2023-10-04T22:07:21.763Z,62.20
2023-10-04T22:09:48.752Z,62.20
2023-10-04T22:12:15.254Z,62.20
2023-10-04T22:14:41.758Z,62.20
2023-10-04T22:17:08.337Z,62.40
2023-10-04T22:19:34.939Z,62.50
2023-10-04T22:22:01.516Z,62.40
2023-10-04T22:24:28.056Z,62.40
2023-10-04T22:26:55.718Z,62.30
2023-10-04T22:29:32.993Z,62.50
2023-10-04T22:32:02.031Z,62.40
2023-10-04T22:34:28.810Z,62.30
2023-10-04T22:36:55.673Z,62.50
2023-10-04T22:39:25.804Z,62.60
2023-10-04T22:41:52.337Z,62.50
2023-10-04T22:44:18.853Z,62.50
2023-10-04T22:46:45.550Z,62.40
2023-10-04T22:49:12.186Z,62.40
2023-10-04T22:51:38.761Z,62.30
2023-10-04T22:54:05.278Z,62.40
2023-10-04T22:56:37.802Z,62.30
2023-10-04T22:59:04.530Z,63.30
2023-10-04T23:01:31.269Z,62.30
2023-10-04T23:03:57.969Z,62.50
2023-10-04T23:06:24.571Z,62.50
2023-10-04T23:08:51.069Z,62.70
2023-10-04T23:11:19.787Z,62.70
2023-10-04T23:13:46.296Z,62.70
2023-10-04T23:16:13.873Z,62.70
2023-10-04T23:18:40.434Z,62.50
2023-10-04T23:21:06.943Z,62.40
2023-10-04T23:23:33.443Z,62.50
2023-10-04T23:25:59.979Z,62.80
2023-10-04T23:28:26.547Z,62.50
2023-10-04T23:30:53.121Z,62.40
2023-10-04T23:33:19.795Z,62.60
2023-10-04T23:35:46.321Z,62.50
2023-10-04T23:38:13.820Z,62.40
2023-10-04T23:40:40.507Z,62.20
2023-10-04T23:43:07.869Z,62.50
2023-10-04T23:45:37.895Z,62.40
2023-10-04T23:48:04.482Z,62.40
2023-10-04T23:50:31.019Z,62.70
2023-10-04T23:52:57.545Z,62.70
2023-10-04T23:55:24.090Z,62.50
2023-10-04T23:57:50.681Z,62.40
